Time;durP1;ratioP1;P1;durP2;ratioP2;P2;SDS_P1;SDS_P2;PMS_P1;PMS_P2;Temp;Humidity;BMP_temperature;BMP_pressure;BME280_temperature;BME280_humidity;BME280_pressure;Samples;Min_cycle;Max_cycle;Signal;HPM_P1;HPM_P2
2023/09/28 00:01:59;;;;;;;;;;;;;;;;;;6311786;22;20235;-96
2023/09/28 00:04:28;;;;;;;;;;;;;;;;;;6309490;22;19945;-96
2023/09/28 00:06:54;;;;;;;;;;;;;;;;;;6309858;22;19902;-96
2023/09/28 00:09:20;;;;;;;;;;;;;;;;;;6309850;22;19932;-96
2023/09/28 00:11:46;;;;;;;;;;;;;;;;;;6309619;22;19933;-96
2023/09/28 00:14:12;;;;;;;;;;;;;;;;;;6308643;22;19911;-96
2023/09/28 00:16:39;;;;;;;;;;;;;;;;;;6309383;22;19978;-96
2023/09/28 00:19:08;;;;;;;;;;;;;;;;;;6309733;22;19903;-96
2023/09/28 00:21:34;;;;;;;;;;;;;;;;;;6308889;22;20244;-96
2023/09/28 00:24:02;;;;;;;;;;;;;;;;;;6309240;22;19910;-96
2023/09/28 00:26:31;;;;;;;;;;;;;;;;;;6309433;22;19903;-95
2023/09/28 00:28:57;;;;;;;;;;;;;;;;;;6336008;22;19895;-96
2023/09/28 00:31:24;;;;;;;;;;;;;;;;;;6334509;22;19911;-96
2023/09/28 00:33:50;;;;;;;;;;;;;;;;;;6332797;22;19937;-95
2023/09/28 00:36:16;;;;;;;;;;;;;;;;;;6317443;22;19907;-96
2023/09/28 00:38:42;;;;;;;;;;;;;;;;;;6314783;22;19907;-96
2023/09/28 00:41:08;;;;;;;;;;;;;;;;;;6313928;22;20308;-96
2023/09/28 00:43:36;;;;;;;;;;;;;;;;;;6313956;22;19924;-95
2023/09/28 00:46:08;;;;;;;;;;;;;;;;;;6314653;22;19937;-95
2023/09/28 00:48:37;;;;;;;;;;;;;;;;;;6314691;22;19902;-96
2023/09/28 00:51:04;;;;;;;;;;;;;;;;;;6315476;22;20312;-96
2023/09/28 00:53:29;;;;;;;;;;;;;;;;;;6315137;22;20296;-96
2023/09/28 00:55:56;;;;;;;;;;;;;;;;;;6317431;22;19903;-96
2023/09/28 00:58:25;;;;;;;;;;;;;;;;;;6313573;22;19902;-96
2023/09/28 01:00:51;;;;;;;;;;;;;;;;;;6315187;22;19907;-96
2023/09/28 01:03:17;;;;;;;;;;;;;;;;;;6316954;22;19903;-95
2023/09/28 01:05:43;;;;;;;;;;;;;;;;;;6315564;22;19902;-96
2023/09/28 01:08:11;;;;;;;;;;;;;;;;;;6315377;22;20244;-96
2023/09/28 01:10:40;;;;;;;;;;;;;;;;;;6313752;22;20596;-96
2023/09/28 01:13:11;;;;;;;;;;;;;;;;;;6314307;22;20377;-96
2023/09/28 01:15:37;;;;;;;;;;;;;;;;;;6314088;22;19982;-95
2023/09/28 01:18:03;;;;;;;;;;;;;;;;;;6314132;22;19906;-96
2023/09/28 01:20:37;;;;;;;;;;;;;;;;;;6313534;22;19973;-96
2023/09/28 01:23:04;;;;;;;;;;;;;;;;;;6315140;22;19902;-96
2023/09/28 01:25:30;;;;;;;;;;;;;;;;;;6318098;22;19925;-95
2023/09/28 01:27:56;;;;;;;;;;;;;;;;;;6315181;22;19906;-96
2023/09/28 01:30:23;;;;;;;;;;;;;;;;;;6315053;22;19910;-96
2023/09/28 01:32:49;;;;;;;;;;;;;;;;;;6315102;22;19903;-96
2023/09/28 01:35:16;;;;;;;;;;;;;;;;;;6314893;22;20316;-96
2023/09/28 01:37:42;;;;;;;;;;;;;;;;;;6312405;22;19960;-96
2023/09/28 01:40:09;;;;;;;;;;;;;;;;;;6313957;22;19903;-96
2023/09/28 01:42:35;;;;;;;;;;;;;;;;;;6314192;22;19903;-95
2023/09/28 01:45:01;;;;;;;;;;;;;;;;;;6314438;22;19907;-96
2023/09/28 01:47:27;;;;;;;;;;;;;;;;;;6315278;22;19910;-96
2023/09/28 01:49:53;;;;;;;;;;;;;;;;;;6314940;22;19902;-96
2023/09/28 01:52:19;;;;;;;;;;;;;;;;;;6314564;22;20380;-95
2023/09/28 01:54:45;;;;;;;;;;;;;;;;;;6314924;22;19911;-96
2023/09/28 01:57:11;;;;;;;;;;;;;;;;;;6315023;22;19906;-94
2023/09/28 01:59:37;;;;;;;;;;;;;;;;;;6314211;22;19902;-95
2023/09/28 02:02:04;;;;;;;;;;;;;;;;;;6313719;22;19924;-95
2023/09/28 02:04:30;;;;;;;;;;;;;;;;;;6275938;22;19980;-96
2023/09/28 02:06:57;;;;;;;;;;;;;;;;;;6276875;22;19910;-96
2023/09/28 02:09:35;;;;;;;;;;;;;;;;;;;;;
2023/09/28 02:12:05;;;;;;;;;;;;;;;;;;6277583;22;19993;-96
2023/09/28 02:14:32;;;;;;;;;;;;;;;;;;6276401;22;19918;-96
2023/09/28 02:17:01;;;;;;;;;;;;;;;;;;6277003;22;19903;-96
2023/09/28 02:19:31;;;;;;;;;;;;;;;;;;6276785;22;20232;-95
2023/09/28 02:22:00;;;;;;;;;;;;;;;;;;6276439;22;20264;-96
2023/09/28 02:24:34;;;;;;;;;;;;;;;;;;6277111;22;19903;-96
2023/09/28 02:27:03;;;;;;;;;;;;;;;;;;6276669;22;19904;-96
2023/09/28 02:29:39;;;;;;;;;;;;;;;;;;;;;
2023/09/28 02:32:05;;;;;;;;;;;;;;;;;;6277474;22;19986;-95
2023/09/28 02:34:31;;;;;;;;;;;;;;;;;;6284735;22;19915;-96
2023/09/28 02:36:57;;;;;;;;;;;;;;;;;;6309783;22;20008;-96
2023/09/28 02:39:28;;;;;;;;;;;;;;;;;;6310338;22;19906;-94
2023/09/28 02:41:57;;;;;;;;;;;;;;;;;;6307611;22;19970;-96
2023/09/28 02:44:26;;;;;;;;;;;;;;;;;;6311659;22;19899;-96
2023/09/28 02:46:55;;;;;;;;;;;;;;;;;;6308244;22;19907;-96
2023/09/28 02:49:21;;;;;;;;;;;;;;;;;;6310563;22;19946;-96
2023/09/28 02:51:50;;;;;;;;;;;;;;;;;;6310473;22;19911;-96
2023/09/28 02:54:19;;;;;;;;;;;;;;;;;;6310575;22;19919;-95
2023/09/28 02:56:50;;;;;;;;;;;;;;;;;;6312296;22;19903;-94
2023/09/28 02:59:16;;;;;;;;;;;;;;;;;;6323211;22;19910;-93
2023/09/28 03:01:42;;;;;;;;;;;;;;;;;;6321068;22;19903;-96
2023/09/28 03:04:08;;;;;;;;;;;;;;;;;;6314608;22;19926;-95
2023/09/28 03:06:52;;;;;;;;;;;;;;;;;;;;;
2023/09/28 03:09:19;;;;;;;;;;;;;;;;;;6311840;22;19943;-96
2023/09/28 03:11:45;;;;;;;;;;;;;;;;;;6310812;22;19903;-96
2023/09/28 03:14:11;;;;;;;;;;;;;;;;;;6310650;22;19922;-96
2023/09/28 03:16:40;;;;;;;;;;;;;;;;;;6310190;22;20336;-96
2023/09/28 03:19:10;;;;;;;;;;;;;;;;;;6310353;22;19903;-96
2023/09/28 03:21:37;;;;;;;;;;;;;;;;;;6300927;22;19903;-95
2023/09/28 03:24:08;;;;;;;;;;;;;;;;;;6309887;22;19910;-96
2023/09/28 03:26:37;;;;;;;;;;;;;;;;;;6309559;22;19903;-96
2023/09/28 03:29:03;;;;;;;;;;;;;;;;;;6310578;22;19930;-95
2023/09/28 03:31:33;;;;;;;;;;;;;;;;;;6310100;22;20316;-96
2023/09/28 03:33:59;;;;;;;;;;;;;;;;;;6329336;22;19927;-96
2023/09/28 03:36:30;;;;;;;;;;;;;;;;;;6339414;22;19911;-96
2023/09/28 03:39:00;;;;;;;;;;;;;;;;;;6336829;22;19903;-96
2023/09/28 03:41:26;;;;;;;;;;;;;;;;;;6327425;22;19909;-96
2023/09/28 03:44:10;;;;;;;;;;;;;;;;;;6315084;22;19906;-95
2023/09/28 03:46:39;;;;;;;;;;;;;;;;;;6315299;22;19948;-96
2023/09/28 03:49:11;;;;;;;;;;;;;;;;;;6314781;22;19902;-96
2023/09/28 03:54:22;;;;;;;;;;;;;;;;;;6342371;22;19934;-96
2023/09/28 03:56:48;;;;;;;;;;;;;;;;;;6321865;22;19902;-95
2023/09/28 03:59:14;;;;;;;;;;;;;;;;;;6321277;22;19902;-96
2023/09/28 04:01:44;;;;;;;;;;;;;;;;;;6314979;22;19945;-96
2023/09/28 04:06:56;;;;;;;;;;;;;;;;;;6327327;22;19922;-96
2023/09/28 04:09:25;;;;;;;;;;;;;;;;;;6314269;22;19949;-96
2023/09/28 04:11:51;;;;;;;;;;;;;;;;;;6313405;22;19985;-96
2023/09/28 04:14:17;;;;;;;;;;;;;;;;;;6313943;22;19918;-96
2023/09/28 04:16:44;;;;;;;;;;;;;;;;;;6314690;22;19930;-96
2023/09/28 04:19:13;;;;;;;;;;;;;;;;;;6313753;22;20312;-95
2023/09/28 04:21:39;;;;;;;;;;;;;;;;;;6314561;22;19910;-96
2023/09/28 04:24:05;;;;;;;;;;;;;;;;;;6314128;22;19902;-96
2023/09/28 04:26:31;;;;;;;;;;;;;;;;;;6314079;22;19907;-96
2023/09/28 04:28:57;;;;;;;;;;;;;;;;;;6314096;22;19910;-96
2023/09/28 04:31:23;;;;;;;;;;;;;;;;;;6314773;22;19909;-96
2023/09/28 04:33:49;;;;;;;;;;;;;;;;;;6313649;22;19911;-95
2023/09/28 04:36:15;;;;;;;;;;;;;;;;;;6314463;22;19909;-96
2023/09/28 04:38:41;;;;;;;;;;;;;;;;;;6314697;22;19914;-95
2023/09/28 04:41:11;;;;;;;;;;;;;;;;;;6313592;22;19909;-96
2023/09/28 04:43:37;;;;;;;;;;;;;;;;;;6322100;22;19925;-96
2023/09/28 04:46:03;;;;;;;;;;;;;;;;;;6327506;22;19984;-96
2023/09/28 04:48:29;;;;;;;;;;;;;;;;;;6322892;22;19910;-96
2023/09/28 04:50:55;;;;;;;;;;;;;;;;;;6313144;22;19977;-96
2023/09/28 04:53:21;;;;;;;;;;;;;;;;;;6318788;22;19915;-96
2023/09/28 04:55:56;;;;;;;;;;;;;;;;;;6314444;22;19902;-96
2023/09/28 04:58:22;;;;;;;;;;;;;;;;;;6313633;22;20320;-96
2023/09/28 05:00:50;;;;;;;;;;;;;;;;;;6316708;22;19988;-96
2023/09/28 05:03:16;;;;;;;;;;;;;;;;;;6315236;22;19971;-96
2023/09/28 05:05:45;;;;;;;;;;;;;;;;;;6315228;22;20281;-96
2023/09/28 05:08:14;;;;;;;;;;;;;;;;;;6317614;22;19913;-96
2023/09/28 05:10:40;;;;;;;;;;;;;;;;;;6316437;22;20261;-96
2023/09/28 05:13:15;;;;;;;;;;;;;;;;;;6318112;22;19942;-96
2023/09/28 05:15:41;;;;;;;;;;;;;;;;;;6321797;22;19906;-96
2023/09/28 05:18:10;;;;;;;;;;;;;;;;;;6317020;22;19903;-96
2023/09/28 05:26:06;;;;;;;;;;;;;;;;;;6306441;22;20248;-96
2023/09/28 05:28:57;;;;;;;;;;;;;;;;;;6278108;22;20144;-96
2023/09/28 05:31:30;;;;;;;;;;;;;;;;;;6282141;22;19903;-96
2023/09/28 05:33:56;;;;;;;;;;;;;;;;;;6281187;22;19911;-96
2023/09/28 05:36:21;;;;;;;;;;;;;;;;;;6282110;22;19926;-96
2023/09/28 05:38:47;;;;;;;;;;;;;;;;;;6281893;22;19903;-96
2023/09/28 05:41:17;;;;;;;;;;;;;;;;;;6282007;22;19903;-94
2023/09/28 05:43:43;;;;;;;;;;;;;;;;;;6282144;22;19903;-96
2023/09/28 05:46:15;;;;;;;;;;;;;;;;;;6282344;22;19907;-94
2023/09/28 05:48:44;;;;;;;;;;;;;;;;;;6282142;22;19910;-96
2023/09/28 05:51:10;;;;;;;;;;;;;;;;;;6282396;22;19903;-96
2023/09/28 05:53:36;;;;;;;;;;;;;;;;;;6282295;22;19922;-95
2023/09/28 05:56:03;;;;;;;;;;;;;;;;;;6282046;22;20343;-96
2023/09/28 05:58:29;;;;;;;;;;;;;;;;;;6282700;22;19917;-96
2023/09/28 06:00:57;;;;;;;;;;;;;;;;;;6281903;22;19989;-93
2023/09/28 06:03:23;;;;;;;;;;;;;;;;;;6281911;22;20324;-94
2023/09/28 06:05:49;;;;;;;;;;;;;;;;;;6281729;22;19907;-94
2023/09/28 06:08:18;;;;;;;;;;;;;;;;;;6283573;22;19903;-93
2023/09/28 06:10:48;;;;;;;;;;;;;;;;;;6284750;22;19989;-95
2023/09/28 06:13:23;;;;;;;;;;;;;;;;;;6281334;22;19978;-95
2023/09/28 06:15:55;;;;;;;;;;;;;;;;;;6285705;22;19907;-96
2023/09/28 06:18:21;;;;;;;;;;;;;;;;;;6285048;22;19987;-95
2023/09/28 06:20:50;;;;;;;;;;;;;;;;;;6292115;22;19903;-94
2023/09/28 06:26:07;;;;;;;;;;;;;;;;;;6314488;22;20256;-94
2023/09/28 06:28:42;;;;;;;;;;;;;;;;;;6286747;22;19907;-94
2023/09/28 06:31:21;;;;;;;;;;;;;;;;;;;;;
2023/09/28 06:55:23;;;;;;;;;;;;;;;;;;6264345;22;20300;-95
2023/09/28 06:57:48;;;;;;;;;;;;;;;;;;6310257;22;19903;-93
2023/09/28 07:00:17;;;;;;;;;;;;;;;;;;6286422;22;19957;-94
2023/09/28 07:02:47;;;;;;;;;;;;;;;;;;6285470;22;19910;-96
2023/09/28 07:05:13;;;;;;;;;;;;;;;;;;6284172;22;20316;-94
2023/09/28 07:07:39;;;;;;;;;;;;;;;;;;6283540;22;19903;-94
2023/09/28 07:10:13;;;;;;;;;;;;;;;;;;6283627;22;19903;-95
2023/09/28 07:12:40;;;;;;;;;;;;;;;;;;6285961;22;19925;-95
2023/09/28 07:15:06;;;;;;;;;;;;;;;;;;6284658;22;19911;-94
2023/09/28 07:17:36;;;;;;;;;;;;;;;;;;6284987;22;19903;-94
2023/09/28 07:20:05;;;;;;;;;;;;;;;;;;6286257;22;19981;-93
2023/09/28 07:22:34;;;;;;;;;;;;;;;;;;6285333;22;19903;-94
2023/09/28 07:27:45;;;;;;;;;;;;;;;;;;6310461;22;19945;-94
2023/09/28 07:30:19;;;;;;;;;;;;;;;;;;6275333;22;20328;-93
2023/09/28 07:32:45;;;;;;;;;;;;;;;;;;6283140;22;19903;-94
2023/09/28 07:35:29;;;;;;;;;;;;;;;;;;6282856;22;19911;-95
2023/09/28 07:37:55;;;;;;;;;;;;;;;;;;6283308;22;19909;-92
2023/09/28 07:40:24;;;;;;;;;;;;;;;;;;6283934;22;19977;-93
2023/09/28 07:45:36;;;;;;;;;;;;;;;;;;6310622;22;20276;-93
2023/09/28 07:48:02;;;;;;;;;;;;;;;;;;6282890;22;20278;-93
2023/09/28 07:50:31;;;;;;;;;;;;;;;;;;6284137;22;20037;-93
2023/09/28 07:53:00;;;;;;;;;;;;;;;;;;6284390;22;19907;-92
2023/09/28 07:55:26;;;;;;;;;;;;;;;;;;6278297;22;19915;-94
2023/09/28 07:57:53;;;;;;;;;;;;;;;;;;6282999;22;19910;-92
2023/09/28 08:03:05;;;;;;;;;;;;;;;;;;6310504;22;19914;-93
2023/09/28 08:05:31;;;;;;;;;;;;;;;;;;6283617;22;19956;-94
2023/09/28 08:07:57;;;;;;;;;;;;;;;;;;6284111;22;20316;-93
2023/09/28 08:10:50;;;;;;;;;;;;;;;;;;6310796;22;19903;-93
2023/09/28 08:13:16;;;;;;;;;;;;;;;;;;6282921;22;19946;-94
2023/09/28 08:15:44;;;;;;;;;;;;;;;;;;6283386;22;20309;-93
2023/09/28 08:18:16;;;;;;;;;;;;;;;;;;6284183;22;19903;-94
2023/09/28 08:20:44;;;;;;;;;;;;;;;;;;6282623;22;19910;-93
2023/09/28 08:23:11;;;;;;;;;;;;;;;;;;6282480;22;19903;-94
2023/09/28 08:25:37;;;;;;;;;;;;;;;;;;6283106;22;19903;-93
2023/09/28 08:28:03;;;;;;;;;;;;;;;;;;6283147;22;19974;-93
2023/09/28 08:30:29;;;;;;;;;;;;;;;;;;6282054;22;20299;-93
2023/09/28 08:32:55;;;;;;;;;;;;;;;;;;6282362;22;19903;-91
2023/09/28 08:35:24;;;;;;;;;;;;;;;;;;6282978;22;19906;-91
2023/09/28 08:37:54;;;;;;;;;;;;;;;;;;6283285;22;19903;-92
2023/09/28 08:40:24;;;;;;;;;;;;;;;;;;6283100;22;20229;-93
2023/09/28 08:42:59;;;;;;;;;;;;;;;;;;6282631;22;19930;-91
2023/09/28 08:45:25;;;;;;;;;;;;;;;;;;6282180;22;19907;-94
2023/09/28 08:47:52;;;;;;;;;;;;;;;;;;6282774;22;19983;-95
2023/09/28 08:50:22;;;;;;;;;;;;;;;;;;6282486;22;19910;-95
2023/09/28 08:52:51;;;;;;;;;;;;;;;;;;6284046;22;19903;-95
2023/09/28 08:55:21;;;;;;;;;;;;;;;;;;6282994;22;20323;-93
2023/09/28 08:57:47;;;;;;;;;;;;;;;;;;6282338;22;19899;-93
2023/09/28 09:00:16;;;;;;;;;;;;;;;;;;6282437;22;19903;-96
2023/09/28 09:02:45;;;;;;;;;;;;;;;;;;6282515;22;19970;-94
2023/09/28 09:05:14;;;;;;;;;;;;;;;;;;6282084;22;19938;-95
2023/09/28 09:07:43;;;;;;;;;;;;;;;;;;6282434;22;19902;-93
2023/09/28 09:10:09;;;;;;;;;;;;;;;;;;6282590;22;19917;-96
2023/09/28 09:12:35;;;;;;;;;;;;;;;;;;6282408;22;19922;-95
2023/09/28 09:15:01;;;;;;;;;;;;;;;;;;6282079;22;19911;-93
2023/09/28 09:17:33;;;;;;;;;;;;;;;;;;6281800;22;19903;-95
2023/09/28 09:19:59;;;;;;;;;;;;;;;;;;6282035;22;19903;-94
2023/09/28 09:22:25;;;;;;;;;;;;;;;;;;6282194;22;19910;-95
2023/09/28 09:24:54;;;;;;;;;;;;;;;;;;6282305;22;19930;-93
2023/09/28 09:27:21;;;;;;;;;;;;;;;;;;6282019;22;19976;-95
2023/09/28 09:29:48;;;;;;;;;;;;;;;;;;6281831;22;19907;-93
2023/09/28 09:32:14;;;;;;;;;;;;;;;;;;6282133;22;20246;-95
2023/09/28 09:34:40;;;;;;;;;;;;;;;;;;6282142;22;20025;-92
2023/09/28 09:37:12;;;;;;;;;;;;;;;;;;6282040;22;20304;-94
2023/09/28 09:39:39;;;;;;;;;;;;;;;;;;6288968;22;19899;-94
2023/09/28 09:42:05;;;;;;;;;;;;;;;;;;6310517;22;19895;-94
2023/09/28 09:44:31;;;;;;;;;;;;;;;;;;6297510;22;20044;-93
2023/09/28 09:46:57;;;;;;;;;;;;;;;;;;6291082;22;19911;-93
2023/09/28 09:49:26;;;;;;;;;;;;;;;;;;6284214;22;19929;-92
2023/09/28 09:51:52;;;;;;;;;;;;;;;;;;6284171;22;19903;-93
2023/09/28 09:54:18;;;;;;;;;;;;;;;;;;6283499;22;19919;-94
2023/09/28 09:56:44;;;;;;;;;;;;;;;;;;6285182;22;19972;-94
2023/09/28 09:59:10;;;;;;;;;;;;;;;;;;6284599;22;19903;-92
2023/09/28 10:01:38;;;;;;;;;;;;;;;;;;6283919;22;19903;-94
2023/09/28 10:04:04;;;;;;;;;;;;;;;;;;6285084;22;19982;-94
2023/09/28 10:06:33;;;;;;;;;;;;;;;;;;6285352;22;19903;-94
2023/09/28 10:09:10;;;;;;;;;;;;;;;;;;6283941;22;19986;-94
2023/09/28 10:11:36;;;;;;;;;;;;;;;;;;6283981;22;19941;-94
2023/09/28 10:14:05;;;;;;;;;;;;;;;;;;6286170;22;19915;-93
2023/09/28 10:16:31;;;;;;;;;;;;;;;;;;6294873;22;20372;-94
2023/09/28 10:19:00;;;;;;;;;;;;;;;;;;6284401;22;19903;-93
2023/09/28 10:21:29;;;;;;;;;;;;;;;;;;6283552;22;19903;-92
2023/09/28 10:23:55;;;;;;;;;;;;;;;;;;6283848;22;20316;-93
2023/09/28 10:26:24;;;;;;;;;;;;;;;;;;6282712;22;19910;-92
2023/09/28 10:28:50;;;;;;;;;;;;;;;;;;6283634;22;19903;-91
2023/09/28 10:31:18;;;;;;;;;;;;;;;;;;6290745;22;19910;-92
2023/09/28 10:33:44;;;;;;;;;;;;;;;;;;6298820;22;19915;-93
2023/09/28 10:36:16;;;;;;;;;;;;;;;;;;6284176;22;19982;-95
2023/09/28 10:41:45;;;;;;;;;;;;;;;;;;6285413;22;19949;-93
2023/09/28 10:44:12;;;;;;;;;;;;;;;;;;6283230;22;19903;-93
2023/09/28 10:49:23;;;;;;;;;;;;;;;;;;6310508;22;19909;-92
2023/09/28 10:51:52;;;;;;;;;;;;;;;;;;6283425;22;19903;-94
2023/09/28 10:54:18;;;;;;;;;;;;;;;;;;6280365;22;20284;-93
2023/09/28 10:56:53;;;;;;;;;;;;;;;;;;6274301;22;19911;-93
2023/09/28 10:59:19;;;;;;;;;;;;;;;;;;6283715;22;19956;-94
2023/09/28 11:01:48;;;;;;;;;;;;;;;;;;6283757;22;19910;-93
2023/09/28 11:04:21;;;;;;;;;;;;;;;;;;6282787;22;19907;-93
2023/09/28 11:09:42;;;;;;;;;;;;;;;;;;6310200;22;19903;-93
2023/09/28 11:12:11;;;;;;;;;;;;;;;;;;6283383;22;19965;-92
2023/09/28 11:14:37;;;;;;;;;;;;;;;;;;6282072;22;20339;-94
2023/09/28 11:17:06;;;;;;;;;;;;;;;;;;6283231;22;19903;-93
2023/09/28 11:19:35;;;;;;;;;;;;;;;;;;6284816;22;19903;-95
2023/09/28 11:22:01;;;;;;;;;;;;;;;;;;6285449;22;19956;-94
2023/09/28 11:24:27;;;;;;;;;;;;;;;;;;6284465;22;19903;-94
2023/09/28 11:26:53;;;;;;;;;;;;;;;;;;6287185;22;19982;-94
2023/09/28 11:29:19;;;;;;;;;;;;;;;;;;6284939;22;20365;-92
2023/09/28 11:31:55;;;;;;;;;;;;;;;;;;6284508;22;19903;-91
2023/09/28 11:34:21;;;;;;;;;;;;;;;;;;6286346;22;19911;-95
2023/09/28 11:36:48;;;;;;;;;;;;;;;;;;6285241;22;20279;-94
2023/09/28 11:39:17;;;;;;;;;;;;;;;;;;6285314;22;19914;-94
2023/09/28 11:41:46;;;;;;;;;;;;;;;;;;6284692;22;19935;-93
2023/09/28 11:44:15;;;;;;;;;;;;;;;;;;6284978;22;19910;-95
2023/09/28 11:46:47;;;;;;;;;;;;;;;;;;6288527;22;19935;-93
2023/09/28 11:49:17;;;;;;;;;;;;;;;;;;6314890;22;19914;-95
2023/09/28 11:51:43;;;;;;;;;;;;;;;;;;6283914;22;19902;-94
2023/09/28 11:54:12;;;;;;;;;;;;;;;;;;6283253;22;19918;-95
2023/09/28 11:56:44;;;;;;;;;;;;;;;;;;6282989;22;19931;-94
2023/09/28 12:02:09;;;;;;;;;;;;;;;;;;6187543;23;19904;-95
2023/09/28 12:04:38;;;;;;;;;;;;;;;;;;6162105;23;19908;-93
2023/09/28 12:07:04;;;;;;;;;;;;;;;;;;6162044;23;20390;-93
2023/09/28 12:09:32;;;;;;;;;;;;;;;;;;6164404;23;19904;-96
2023/09/28 12:12:01;;;;;;;;;;;;;;;;;;6170957;23;19905;-94
2023/09/28 12:14:45;;;;;;;;;;;;;;;;;;6173728;23;19995;-93
2023/09/28 12:17:14;;;;;;;;;;;;;;;;;;6165799;22;19904;-94
2023/09/28 12:19:40;;;;;;;;;;;;;;;;;;6282943;22;20275;-94
2023/09/28 12:22:19;;;;;;;;;;;;;;;;;;6282444;22;19925;-93
2023/09/28 12:24:45;;;;;;;;;;;;;;;;;;6282944;22;19974;-94
2023/09/28 12:27:14;;;;;;;;;;;;;;;;;;6282713;22;19903;-94
2023/09/28 12:29:50;;;;;;;;;;;;;;;;;;6282851;22;19903;-93
2023/09/28 12:32:22;;;;;;;;;;;;;;;;;;6284812;22;19910;-95
2023/09/28 12:37:51;;;;;;;;;;;;;;;;;;6262277;22;19918;-96
2023/09/28 12:42:59;;;;;;;;;;;;;;;;;;6332649;22;19942;-94
2023/09/28 12:48:11;;;;;;;;;;;;;;;;;;6313729;22;19934;-94
2023/09/28 12:56:06;;;;;;;;;;;;;;;;;;6246117;23;20379;-92
2023/09/28 12:58:32;;;;;;;;;;;;;;;;;;6245950;23;19903;-95
2023/09/28 13:00:58;;;;;;;;;;;;;;;;;;6246005;23;20283;-95
2023/09/28 13:03:27;;;;;;;;;;;;;;;;;;6249891;23;20288;-91
2023/09/28 13:08:47;;;;;;;;;;;;;;;;;;6245898;23;19911;-93
2023/09/28 13:11:21;;;;;;;;;;;;;;;;;;6248151;23;19903;-94
2023/09/28 13:27:12;;;;;;;;;;;;;;;;;;6219192;22;19927;-94
2023/09/28 13:48:01;;;;;;;;;;;;;;;;;;6232733;22;19920;-92
2023/09/28 13:50:31;;;;;;;;;;;;;;;;;;6283344;22;19945;-95
2023/09/28 13:52:57;;;;;;;;;;;;;;;;;;6281983;22;19929;-92
2023/09/28 13:55:31;;;;;;;;;;;;;;;;;;6282229;22;19911;-92
2023/09/28 13:57:57;;;;;;;;;;;;;;;;;;6282489;22;19903;-96
2023/09/28 14:00:45;;;;;;;;;;;;;;;;;;6281748;22;20362;-93
2023/09/28 14:03:09;;;;;;;;;;;;;;;;;;6307903;22;19906;-94
2023/09/28 14:05:35;;;;;;;;;;;;;;;;;;6282058;22;19910;-92
2023/09/28 14:08:04;;;;;;;;;;;;;;;;;;6281897;22;20313;-94
2023/09/28 14:10:33;;;;;;;;;;;;;;;;;;6282213;22;19903;-94
2023/09/28 14:13:01;;;;;;;;;;;;;;;;;;6281461;22;19907;-93
2023/09/28 14:15:33;;;;;;;;;;;;;;;;;;6281638;22;19911;-94
2023/09/28 14:17:59;;;;;;;;;;;;;;;;;;6281616;22;19907;-94
2023/09/28 14:20:25;;;;;;;;;;;;;;;;;;6280011;22;20320;-94
2023/09/28 14:22:51;;;;;;;;;;;;;;;;;;6282029;22;19926;-94
2023/09/28 14:25:17;;;;;;;;;;;;;;;;;;6282395;22;19926;-94
2023/09/28 14:27:46;;;;;;;;;;;;;;;;;;6285741;22;19903;-95
2023/09/28 14:30:13;;;;;;;;;;;;;;;;;;6283710;22;20320;-94
2023/09/28 14:32:39;;;;;;;;;;;;;;;;;;6284183;22;19941;-95
2023/09/28 14:35:05;;;;;;;;;;;;;;;;;;6283520;22;19911;-93
2023/09/28 14:37:34;;;;;;;;;;;;;;;;;;6283547;22;19903;-93
2023/09/28 14:40:12;;;;;;;;;;;;;;;;;;6283660;22;19952;-92
2023/09/28 14:42:38;;;;;;;;;;;;;;;;;;6281995;22;20407;-94
2023/09/28 14:45:04;;;;;;;;;;;;;;;;;;6283623;22;19903;-93
2023/09/28 14:50:18;;;;;;;;;;;;;;;;;;6310754;22;20009;-94
2023/09/28 14:52:44;;;;;;;;;;;;;;;;;;6283556;22;19902;-95
2023/09/28 14:55:13;;;;;;;;;;;;;;;;;;6283464;22;20339;-94
2023/09/28 15:00:24;;;;;;;;;;;;;;;;;;6310659;22;20244;-95
2023/09/28 15:02:50;;;;;;;;;;;;;;;;;;6283598;22;19907;-93
2023/09/28 15:05:16;;;;;;;;;;;;;;;;;;6283347;22;20224;-95
2023/09/28 15:07:42;;;;;;;;;;;;;;;;;;6282967;22;19924;-93
2023/09/28 15:10:09;;;;;;;;;;;;;;;;;;6283272;22;19903;-95
2023/09/28 15:12:35;;;;;;;;;;;;;;;;;;6283920;22;19903;-94
2023/09/28 15:15:01;;;;;;;;;;;;;;;;;;6283286;22;19915;-92
2023/09/28 15:17:27;;;;;;;;;;;;;;;;;;6291376;22;19926;-94
2023/09/28 15:19:53;;;;;;;;;;;;;;;;;;6283237;22;19903;-94
2023/09/28 15:22:19;;;;;;;;;;;;;;;;;;6284064;22;19925;-92
2023/09/28 15:24:45;;;;;;;;;;;;;;;;;;6283381;22;19922;-94
2023/09/28 15:27:20;;;;;;;;;;;;;;;;;;6283005;22;19903;-93
2023/09/28 15:29:46;;;;;;;;;;;;;;;;;;6283323;22;19903;-92
2023/09/28 15:32:14;;;;;;;;;;;;;;;;;;6283263;22;19998;-94
2023/09/28 15:34:40;;;;;;;;;;;;;;;;;;6250480;23;19922;-93
2023/09/28 15:37:18;;;;;;;;;;;;;;;;;;6254849;23;19923;-94
2023/09/28 15:39:44;;;;;;;;;;;;;;;;;;6250080;23;20055;-95
2023/09/28 15:42:13;;;;;;;;;;;;;;;;;;6274586;22;19926;-95
2023/09/28 15:44:40;;;;;;;;;;;;;;;;;;6270134;22;19904;-96
2023/09/28 15:47:06;;;;;;;;;;;;;;;;;;6262814;23;19894;-93
2023/09/28 15:49:32;;;;;;;;;;;;;;;;;;6193816;23;20314;-93
2023/09/28 15:51:57;;;;;;;;;;;;;;;;;;6191932;23;19912;-94
2023/09/28 15:54:23;;;;;;;;;;;;;;;;;;6191559;23;19912;-94
2023/09/28 15:56:49;;;;;;;;;;;;;;;;;;6191662;23;19908;-95
2023/09/28 15:59:15;;;;;;;;;;;;;;;;;;6191907;23;20354;-93
2023/09/28 16:01:47;;;;;;;;;;;;;;;;;;6217569;23;20338;-94
2023/09/28 16:04:22;;;;;;;;;;;;;;;;;;6193394;23;19904;-92
2023/09/28 16:06:51;;;;;;;;;;;;;;;;;;6253200;22;19974;-93
2023/09/28 16:09:20;;;;;;;;;;;;;;;;;;6255336;22;19946;-94
2023/09/28 16:11:49;;;;;;;;;;;;;;;;;;6253497;22;19907;-94
2023/09/28 16:14:18;;;;;;;;;;;;;;;;;;6252618;22;19933;-95
2023/09/28 16:16:45;;;;;;;;;;;;;;;;;;6253116;22;20206;-94
2023/09/28 16:19:11;;;;;;;;;;;;;;;;;;6252513;22;19903;-94
2023/09/28 16:21:40;;;;;;;;;;;;;;;;;;6251806;22;19903;-93
2023/09/28 16:24:08;;;;;;;;;;;;;;;;;;6251724;22;19903;-93
2023/09/28 16:26:34;;;;;;;;;;;;;;;;;;6215574;23;19910;-93
2023/09/28 16:29:00;;;;;;;;;;;;;;;;;;6190491;23;19935;-94
2023/09/28 16:31:28;;;;;;;;;;;;;;;;;;6190648;23;19911;-92
2023/09/28 16:33:54;;;;;;;;;;;;;;;;;;6190617;23;20369;-93
2023/09/28 16:36:23;;;;;;;;;;;;;;;;;;6190961;23;19915;-92
2023/09/28 16:38:51;;;;;;;;;;;;;;;;;;6190867;23;19904;-95
2023/09/28 16:41:17;;;;;;;;;;;;;;;;;;6190454;23;19934;-93
2023/09/28 16:43:46;;;;;;;;;;;;;;;;;;6190380;23;19910;-95
2023/09/28 16:46:12;;;;;;;;;;;;;;;;;;6190730;23;19935;-94
2023/09/28 16:48:46;;;;;;;;;;;;;;;;;;6209996;23;19938;-94
2023/09/28 16:53:58;;;;;;;;;;;;;;;;;;6252879;23;19957;-92
2023/09/28 16:56:27;;;;;;;;;;;;;;;;;;6226211;22;19904;-92
2023/09/28 16:58:54;;;;;;;;;;;;;;;;;;6251072;23;19911;-95
2023/09/28 17:01:26;;;;;;;;;;;;;;;;;;6266383;22;19914;-94
2023/09/28 17:04:09;;;;;;;;;;;;;;;;;;6278508;22;19974;-92
2023/09/28 17:06:37;;;;;;;;;;;;;;;;;;6251809;22;19910;-94
2023/09/28 17:09:13;;;;;;;;;;;;;;;;;;;;;
2023/09/28 17:11:42;;;;;;;;;;;;;;;;;;6278847;22;19986;-94
2023/09/28 17:14:12;;;;;;;;;;;;;;;;;;6278728;22;19947;-93
2023/09/28 17:16:47;;;;;;;;;;;;;;;;;;6253012;22;20228;-95
2023/09/28 17:19:13;;;;;;;;;;;;;;;;;;6252128;22;19982;-96
2023/09/28 17:24:18;;;;;;;;;;;;;;;;;;6255566;22;19925;-95
2023/09/28 17:26:47;;;;;;;;;;;;;;;;;;6284746;22;19973;-93
2023/09/28 17:29:16;;;;;;;;;;;;;;;;;;6308690;22;19902;-95
2023/09/28 17:32:03;;;;;;;;;;;;;;;;;;6310595;22;19921;-93
2023/09/28 17:34:42;;;;;;;;;;;;;;;;;;6219402;23;19912;-96
2023/09/28 17:40:05;;;;;;;;;;;;;;;;;;6187091;23;19920;-96
2023/09/28 17:42:31;;;;;;;;;;;;;;;;;;6160849;23;19905;-94
2023/09/28 17:44:57;;;;;;;;;;;;;;;;;;6261263;22;19925;-95
2023/09/28 17:47:32;;;;;;;;;;;;;;;;;;6285035;22;19903;-94
2023/09/28 17:49:59;;;;;;;;;;;;;;;;;;6289401;22;20316;-94
2023/09/28 17:52:38;;;;;;;;;;;;;;;;;;6287042;22;19978;-95
2023/09/28 17:55:04;;;;;;;;;;;;;;;;;;6282018;22;20324;-94
2023/09/28 17:57:33;;;;;;;;;;;;;;;;;;6282748;22;19903;-94
2023/09/28 17:59:59;;;;;;;;;;;;;;;;;;6281737;22;19903;-94
2023/09/28 18:02:29;;;;;;;;;;;;;;;;;;6309513;22;20279;-93
2023/09/28 18:05:14;;;;;;;;;;;;;;;;;;6284617;22;20320;-96
2023/09/28 18:07:46;;;;;;;;;;;;;;;;;;6284454;22;19958;-94
2023/09/28 18:12:57;;;;;;;;;;;;;;;;;;6311746;22;20320;-95
2023/09/28 18:15:24;;;;;;;;;;;;;;;;;;6285096;22;19911;-95
2023/09/28 18:17:56;;;;;;;;;;;;;;;;;;6289056;22;19929;-95
2023/09/28 18:20:40;;;;;;;;;;;;;;;;;;6299187;22;19903;-93
2023/09/28 18:23:16;;;;;;;;;;;;;;;;;;6290417;22;19910;-93
2023/09/28 18:25:50;;;;;;;;;;;;;;;;;;6284702;22;19921;-93
2023/09/28 18:28:19;;;;;;;;;;;;;;;;;;6247196;23;20412;-95
2023/09/28 18:33:34;;;;;;;;;;;;;;;;;;6241108;23;19964;-94
2023/09/28 18:36:03;;;;;;;;;;;;;;;;;;6247548;23;20295;-93
2023/09/28 18:38:29;;;;;;;;;;;;;;;;;;6255193;23;19907;-95
2023/09/28 18:43:55;;;;;;;;;;;;;;;;;;6269394;22;19953;-94
2023/09/28 18:46:21;;;;;;;;;;;;;;;;;;6269829;22;19908;-95
2023/09/28 18:48:49;;;;;;;;;;;;;;;;;;6259274;23;20359;-95
2023/09/28 18:53:44;;;;;;;;;;;;;;;;;;6230899;22;19930;-95
2023/09/28 18:56:10;;;;;;;;;;;;;;;;;;6283646;22;19998;-95
2023/09/28 18:58:52;;;;;;;;;;;;;;;;;;6283775;22;19985;-94
2023/09/28 19:01:24;;;;;;;;;;;;;;;;;;6283794;22;19903;-95
2023/09/28 19:03:53;;;;;;;;;;;;;;;;;;6284131;22;19903;-94
2023/09/28 19:06:25;;;;;;;;;;;;;;;;;;6283850;22;20243;-95